createdAt,value
2022-10-14T00:02:18.473Z,31.23
2022-10-14T00:05:05.857Z,28.67
2022-10-14T00:07:53.074Z,31.07
2022-10-14T00:10:40.640Z,29.90
2022-10-14T00:13:27.640Z,33.47
2022-10-14T00:16:24.414Z,35.37
2022-10-14T00:19:12.318Z,34.70
2022-10-14T00:21:59.258Z,37.33
2022-10-14T00:24:46.322Z,41.70
2022-10-14T00:27:33.273Z,42.17
2022-10-14T00:30:20.724Z,42.53
2022-10-14T00:33:07.706Z,44.40
2022-10-14T00:35:59.660Z,47.97
2022-10-14T00:38:47.646Z,44.40
2022-10-14T00:41:35.634Z,44.53
2022-10-14T00:44:25.381Z,45.23
2022-10-14T00:47:12.935Z,52.83
2022-10-14T00:50:00.734Z,47.67
2022-10-14T00:52:48.006Z,51.07
2022-10-14T00:55:35.062Z,52.27
2022-10-14T00:58:22.375Z,47.73
2022-10-14T01:01:09.400Z,53.13
2022-10-14T01:03:56.465Z,55.27
2022-10-14T01:06:49.333Z,53.27
2022-10-14T01:09:53.718Z,54.33
2022-10-14T01:13:12.601Z,54.30
2022-10-14T01:16:21.214Z,52.80
2022-10-14T01:19:20.357Z,53.53
2022-10-14T01:22:38.472Z,60.03
2022-10-14T01:25:49.770Z,53.67
2022-10-14T01:29:08.457Z,61.90
2022-10-14T01:32:06.831Z,62.47
2022-10-14T01:35:12.198Z,58.43
2022-10-14T01:38:04.433Z,60.40
2022-10-14T01:41:00.509Z,63.03
2022-10-14T01:43:51.000Z,57.00
2022-10-14T01:46:42.445Z,60.73
2022-10-14T01:49:37.492Z,61.07
2022-10-14T01:52:31.098Z,64.73
2022-10-14T01:55:26.267Z,60.80
2022-10-14T01:58:16.002Z,68.43
2022-10-14T02:01:05.017Z,62.93
2022-10-14T02:03:51.973Z,67.47
2022-10-14T02:06:43.343Z,69.53
2022-10-14T02:09:47.409Z,72.40
2022-10-14T02:13:25.047Z,71.33
2022-10-14T02:16:34.038Z,72.80
2022-10-14T02:19:23.960Z,68.27
2022-10-14T02:22:32.373Z,73.30
2022-10-14T02:25:24.959Z,71.77
2022-10-14T02:28:18.231Z,67.23
2022-10-14T02:31:10.641Z,70.87
2022-10-14T02:34:00.777Z,79.60
2022-10-14T02:36:48.443Z,71.30
2022-10-14T02:39:43.249Z,71.93
2022-10-14T02:42:30.266Z,71.17
2022-10-14T02:45:18.329Z,78.10
2022-10-14T02:48:06.696Z,92.67
2022-10-14T02:50:53.625Z,88.17
2022-10-14T02:53:40.613Z,81.83
2022-10-14T02:56:27.550Z,87.10
2022-10-14T02:59:14.536Z,92.37
2022-10-14T03:02:01.716Z,87.83
2022-10-14T03:04:48.702Z,93.93
2022-10-14T03:07:35.710Z,91.70
2022-10-14T03:10:22.713Z,91.63
2022-10-14T03:13:09.700Z,82.50
2022-10-14T03:15:56.722Z,91.17
2022-10-14T03:18:43.699Z,87.23
2022-10-14T03:21:30.720Z,91.13
2022-10-14T03:24:17.627Z,94.23
2022-10-14T03:27:04.725Z,80.27
2022-10-14T03:29:51.874Z,79.30
2022-10-14T03:32:38.801Z,80.77
2022-10-14T03:35:25.710Z,80.73
2022-10-14T03:38:12.673Z,85.70
2022-10-14T03:40:59.705Z,73.47
2022-10-14T03:43:46.870Z,75.87
2022-10-14T03:46:33.822Z,84.33
2022-10-14T03:49:20.756Z,71.07
2022-10-14T03:52:07.926Z,76.77
2022-10-14T03:54:54.905Z,72.70
2022-10-14T03:57:41.960Z,67.53
2022-10-14T04:00:29.691Z,67.97
2022-10-14T04:03:16.741Z,61.97
2022-10-14T04:06:04.252Z,62.87
2022-10-14T04:08:51.211Z,58.97
2022-10-14T04:11:38.242Z,60.33
2022-10-14T04:14:26.668Z,55.77
2022-10-14T04:17:13.740Z,51.10
2022-10-14T04:20:00.744Z,57.60
2022-10-14T04:22:47.749Z,51.70
2022-10-14T04:25:37.742Z,53.00
2022-10-14T04:28:24.995Z,52.37
2022-10-14T04:31:11.912Z,53.43
2022-10-14T04:33:58.861Z,54.00
2022-10-14T04:36:45.752Z,54.80
2022-10-14T04:39:32.713Z,61.80
2022-10-14T04:42:19.978Z,62.80
2022-10-14T04:45:07.494Z,66.80
2022-10-14T04:47:54.470Z,64.20
2022-10-14T04:50:41.698Z,74.43
2022-10-14T04:53:28.620Z,59.20
2022-10-14T04:56:15.586Z,59.67
2022-10-14T04:59:02.551Z,66.60
2022-10-14T05:01:49.604Z,64.40
2022-10-14T05:04:36.706Z,59.70
2022-10-14T05:07:23.708Z,62.53
2022-10-14T05:10:10.746Z,58.33
2022-10-14T05:12:57.806Z,56.90
2022-10-14T05:15:44.887Z,64.83
2022-10-14T05:18:31.794Z,59.20
2022-10-14T05:21:18.800Z,50.43
2022-10-14T05:24:05.943Z,61.73
2022-10-14T05:26:52.950Z,56.00
2022-10-14T05:29:39.929Z,51.93
2022-10-14T05:32:27.025Z,59.13
2022-10-14T05:35:14.181Z,51.87
2022-10-14T05:38:04.192Z,55.10
2022-10-14T05:40:55.793Z,51.40
2022-10-14T05:43:42.789Z,50.70
2022-10-14T05:46:29.735Z,54.67
2022-10-14T05:49:16.765Z,48.40
2022-10-14T05:52:04.250Z,60.03
2022-10-14T05:54:51.249Z,53.80
2022-10-14T05:57:38.155Z,56.17
2022-10-14T06:00:26.002Z,51.23
2022-10-14T06:03:13.305Z,47.37
2022-10-14T06:06:00.678Z,50.57
2022-10-14T06:08:47.647Z,51.13
2022-10-14T06:11:34.733Z,54.97
2022-10-14T06:14:21.836Z,48.27
2022-10-14T06:17:08.802Z,49.93
2022-10-14T06:19:56.320Z,63.83
2022-10-14T06:22:43.368Z,60.30
2022-10-14T06:25:31.735Z,60.30
2022-10-14T06:28:18.855Z,54.03
2022-10-14T06:31:07.462Z,56.40
2022-10-14T06:33:54.470Z,52.43
2022-10-14T06:36:41.541Z,54.73
2022-10-14T06:39:28.561Z,57.70
2022-10-14T06:42:15.516Z,55.37
2022-10-14T06:45:02.479Z,54.67
2022-10-14T06:47:49.399Z,48.70
2022-10-14T06:50:37.135Z,55.57
2022-10-14T06:53:24.059Z,53.57
2022-10-14T06:56:12.080Z,49.27
2022-10-14T06:58:59.085Z,62.40
2022-10-14T07:01:46.089Z,62.00
2022-10-14T07:04:33.057Z,71.70
2022-10-14T07:07:20.030Z,59.63
2022-10-14T07:10:07.393Z,72.23
2022-10-14T07:12:55.748Z,63.17
2022-10-14T07:15:42.816Z,66.67
2022-10-14T07:18:30.138Z,61.20
2022-10-14T07:21:17.131Z,61.27
2022-10-14T07:24:04.440Z,59.53
2022-10-14T07:26:51.715Z,65.87
2022-10-14T07:29:38.750Z,61.37
2022-10-14T07:32:25.658Z,70.20
2022-10-14T07:35:13.358Z,72.87
2022-10-14T07:38:00.354Z,70.67
2022-10-14T07:41:00.766Z,73.87
2022-10-14T07:43:50.728Z,73.90
2022-10-14T07:46:40.529Z,74.97
2022-10-14T07:49:27.566Z,74.20
2022-10-14T07:52:15.742Z,75.50
2022-10-14T07:55:02.870Z,67.50
2022-10-14T07:57:49.809Z,71.93
2022-10-14T08:00:38.183Z,70.07
2022-10-14T08:03:26.120Z,72.23
2022-10-14T08:06:15.057Z,70.37
2022-10-14T08:09:09.181Z,75.30
2022-10-14T08:11:56.881Z,77.07
2022-10-14T08:14:43.940Z,73.40
2022-10-14T08:17:30.886Z,78.57
2022-10-14T08:20:18.228Z,73.97
2022-10-14T08:23:05.194Z,83.40
2022-10-14T08:25:52.198Z,77.47
2022-10-14T08:28:39.151Z,76.70
2022-10-14T08:31:26.192Z,75.50
2022-10-14T08:34:13.202Z,82.63
2022-10-14T08:37:02.289Z,78.27
2022-10-14T08:39:49.228Z,78.07
2022-10-14T08:42:44.177Z,78.70
2022-10-14T08:45:45.137Z,78.53
2022-10-14T08:48:34.175Z,77.33
2022-10-14T08:51:21.672Z,74.80
2022-10-14T08:54:17.336Z,73.03
2022-10-14T08:57:07.166Z,66.63
2022-10-14T08:59:55.584Z,67.07
2022-10-14T09:02:51.955Z,67.07
2022-10-14T09:05:40.744Z,59.37
2022-10-14T09:08:34.190Z,59.00
2022-10-14T09:11:24.543Z,51.17
2022-10-14T09:14:21.364Z,47.23
2022-10-14T09:17:25.933Z,45.90
2022-10-14T09:20:22.459Z,43.83
2022-10-14T09:23:23.085Z,42.33
2022-10-14T09:26:19.676Z,43.33
2022-10-14T09:29:21.575Z,44.90
2022-10-14T09:32:38.508Z,39.40
2022-10-14T09:35:36.365Z,36.90
2022-10-14T09:38:24.777Z,36.00
2022-10-14T09:41:15.219Z,33.27
2022-10-14T09:44:26.317Z,30.77
2022-10-14T09:47:16.599Z,26.33
2022-10-14T09:50:09.013Z,28.87
2022-10-14T09:53:03.154Z,22.73
2022-10-14T09:55:56.000Z,22.10
2022-10-14T09:58:54.135Z,19.83
2022-10-14T10:01:49.270Z,18.30
2022-10-14T10:04:47.888Z,17.90
2022-10-14T10:07:35.791Z,18.20
2022-10-14T10:10:23.105Z,15.10
2022-10-14T10:13:38.389Z,13.70
2022-10-14T10:16:31.354Z,11.17
2022-10-14T10:19:38.626Z,9.53
2022-10-14T10:22:27.534Z,10.13
2022-10-14T10:25:14.408Z,11.00
2022-10-14T10:28:01.366Z,8.43
2022-10-14T10:31:10.201Z,9.70
2022-10-14T10:34:34.923Z,8.83
2022-10-14T10:37:31.637Z,7.63
2022-10-14T10:40:40.024Z,8.57
2022-10-14T10:44:02.232Z,8.73
2022-10-14T10:46:56.820Z,7.10
2022-10-14T10:49:59.782Z,7.73
2022-10-14T10:53:34.618Z,7.17
2022-10-14T10:56:33.773Z,6.07
2022-10-14T10:59:59.537Z,6.13
2022-10-14T11:02:49.412Z,3.33
2022-10-14T11:06:42.281Z,4.53
2022-10-14T11:10:14.605Z,3.33
2022-10-14T11:13:14.772Z,2.50
2022-10-14T11:16:07.940Z,2.30
2022-10-14T11:19:09.749Z,3.60
2022-10-14T11:22:14.016Z,3.10
2022-10-14T11:25:10.816Z,5.10
2022-10-14T11:28:09.886Z,2.50
2022-10-14T11:31:13.496Z,3.40
2022-10-14T11:34:06.339Z,3.20
2022-10-14T11:37:04.153Z,3.63
2022-10-14T11:40:15.663Z,3.50
2022-10-14T11:43:32.856Z,3.03
2022-10-14T11:46:29.168Z,2.77
2022-10-14T11:49:24.417Z,4.20
2022-10-14T11:52:20.061Z,4.57
2022-10-14T11:55:15.606Z,3.73
2022-10-14T11:58:10.588Z,4.10
2022-10-14T12:01:17.910Z,5.10
2022-10-14T12:04:15.931Z,4.13
2022-10-14T12:07:20.108Z,3.27
2022-10-14T12:10:37.573Z,3.33
2022-10-14T12:13:43.565Z,3.63
2022-10-14T12:16:31.801Z,4.40
2022-10-14T12:19:29.796Z,3.20
2022-10-14T12:22:27.245Z,3.03
2022-10-14T12:25:18.635Z,5.13
2022-10-14T12:28:06.197Z,2.93
2022-10-14T12:31:28.075Z,4.13
2022-10-14T12:34:19.018Z,2.50
2022-10-14T12:37:28.766Z,4.40
2022-10-14T12:40:27.005Z,3.80
2022-10-14T12:43:19.409Z,2.77
2022-10-14T12:46:13.677Z,2.23
2022-10-14T12:49:00.690Z,3.20
2022-10-14T12:52:01.655Z,2.80
2022-10-14T12:54:50.150Z,2.50
2022-10-14T12:57:40.219Z,3.37
2022-10-14T13:00:40.715Z,2.60
2022-10-14T13:03:32.794Z,3.80
2022-10-14T13:06:31.665Z,2.00
2022-10-14T13:09:31.022Z,3.37
2022-10-14T13:12:21.122Z,3.33
2022-10-14T13:15:34.839Z,2.00
2022-10-14T13:18:31.297Z,3.37
2022-10-14T13:21:34.593Z,2.03
2022-10-14T13:24:29.122Z,3.73
2022-10-14T13:27:30.144Z,2.47
2022-10-14T13:30:40.590Z,2.77
2022-10-14T13:33:51.015Z,1.97
2022-10-14T13:36:53.456Z,2.50
2022-10-14T13:39:40.472Z,2.40
2022-10-14T13:42:34.644Z,3.27
2022-10-14T13:45:37.018Z,2.30
2022-10-14T13:48:37.387Z,2.27
2022-10-14T13:51:36.559Z,3.70
2022-10-14T13:54:31.015Z,3.13
2022-10-14T14:00:44.731Z,1.87
2022-10-14T14:03:42.156Z,2.10
2022-10-14T14:06:35.846Z,1.40
2022-10-14T14:09:33.434Z,1.57
2022-10-14T14:12:21.966Z,3.27
2022-10-14T14:15:25.228Z,3.03
2022-10-14T14:18:33.837Z,1.83
2022-10-14T14:21:30.344Z,2.00
2022-10-14T14:24:22.391Z,2.00
2022-10-14T14:27:15.131Z,1.47
2022-10-14T14:30:05.145Z,2.30
2022-10-14T14:32:53.889Z,2.40
2022-10-14T14:35:56.026Z,3.90
2022-10-14T14:38:53.243Z,1.83
2022-10-14T14:41:40.412Z,1.93
2022-10-14T14:44:31.497Z,1.97
2022-10-14T14:47:18.906Z,2.03
2022-10-14T14:53:29.695Z,2.23
2022-10-14T14:56:23.425Z,1.40
2022-10-14T14:59:30.465Z,2.57
2022-10-14T15:02:20.705Z,3.37
2022-10-14T15:05:10.737Z,1.57
2022-10-14T15:07:57.998Z,1.70
2022-10-14T15:10:48.510Z,2.33
2022-10-14T15:13:38.597Z,1.70
2022-10-14T15:16:42.252Z,2.17
2022-10-14T15:19:38.251Z,3.10
2022-10-14T15:22:33.390Z,2.13
2022-10-14T15:25:31.628Z,3.37
2022-10-14T15:28:32.506Z,2.40
2022-10-14T15:31:19.585Z,2.03
2022-10-14T15:34:16.679Z,3.73
2022-10-14T15:37:03.778Z,3.80
2022-10-14T15:40:04.825Z,4.80
2022-10-14T15:42:51.887Z,2.93
2022-10-14T15:45:38.833Z,4.07
2022-10-14T15:48:25.768Z,3.83
2022-10-14T15:51:17.804Z,4.37
2022-10-14T15:54:04.806Z,3.47
2022-10-14T15:56:51.884Z,3.37
2022-10-14T15:59:38.843Z,5.93
2022-10-14T16:02:33.072Z,4.03
2022-10-14T16:05:22.001Z,6.07
2022-10-14T16:08:15.386Z,6.40
2022-10-14T16:11:04.320Z,5.67
2022-10-14T16:13:51.291Z,4.70
2022-10-14T16:16:42.722Z,6.77
2022-10-14T16:19:29.694Z,5.23
2022-10-14T16:22:16.653Z,5.40
2022-10-14T16:25:03.879Z,7.63
2022-10-14T16:27:50.949Z,8.00
2022-10-14T16:30:41.575Z,7.67
2022-10-14T16:33:28.604Z,7.80
2022-10-14T16:36:15.863Z,6.60
2022-10-14T16:39:02.878Z,9.10
2022-10-14T16:41:49.961Z,7.93
2022-10-14T16:44:36.944Z,7.83
2022-10-14T16:47:24.510Z,8.60
2022-10-14T16:50:12.265Z,10.10
2022-10-14T16:53:17.695Z,10.63
2022-10-14T16:56:26.025Z,11.10
2022-10-14T16:59:13.758Z,11.30
2022-10-14T17:02:01.326Z,10.30
2022-10-14T17:04:49.206Z,11.90
2022-10-14T17:07:36.205Z,10.67
2022-10-14T17:10:23.210Z,11.10
2022-10-14T17:13:10.645Z,13.60
2022-10-14T17:16:06.029Z,16.03
2022-10-14T17:18:52.966Z,13.27
2022-10-14T17:21:40.014Z,14.53
2022-10-14T17:24:26.959Z,14.63
2022-10-14T17:27:14.090Z,14.63
2022-10-14T17:30:01.042Z,13.90
2022-10-14T17:32:48.095Z,14.87
2022-10-14T17:35:35.058Z,16.33
2022-10-14T17:38:22.023Z,13.27
2022-10-14T17:41:11.149Z,16.27
2022-10-14T17:44:00.390Z,17.43
2022-10-14T17:46:47.378Z,16.60
2022-10-14T17:49:34.401Z,14.40
2022-10-14T17:52:21.347Z,16.53
2022-10-14T17:55:08.909Z,14.53
2022-10-14T17:57:55.889Z,14.77
2022-10-14T18:00:43.640Z,15.97
2022-10-14T18:03:32.617Z,15.53
2022-10-14T18:06:22.422Z,19.33
2022-10-14T18:09:10.449Z,17.70
2022-10-14T18:12:13.362Z,15.70
2022-10-14T18:15:01.764Z,15.80
2022-10-14T18:17:50.009Z,14.33
2022-10-14T18:20:37.865Z,14.60
2022-10-14T18:23:24.817Z,16.50
2022-10-14T18:26:14.454Z,17.57
2022-10-14T18:29:01.583Z,16.50
2022-10-14T18:34:37.861Z,20.37
2022-10-14T18:37:24.784Z,16.97
2022-10-14T18:40:11.928Z,27.93
2022-10-14T18:42:59.756Z,17.77
2022-10-14T18:45:46.696Z,20.03
2022-10-14T18:48:33.689Z,18.53
2022-10-14T18:51:25.581Z,19.23
2022-10-14T18:54:18.441Z,19.37
2022-10-14T18:57:05.405Z,19.23
2022-10-14T18:59:52.345Z,18.63
2022-10-14T19:02:39.261Z,19.10
2022-10-14T19:05:30.849Z,19.87
2022-10-14T19:08:20.081Z,19.07
2022-10-14T19:11:16.312Z,17.07
2022-10-14T19:14:05.336Z,21.40
2022-10-14T19:16:52.232Z,18.97
2022-10-14T19:19:39.579Z,19.47
2022-10-14T19:22:26.673Z,17.77
2022-10-14T19:25:13.762Z,17.67
2022-10-14T19:28:00.776Z,16.53
2022-10-14T19:30:47.743Z,15.30
2022-10-14T19:33:39.313Z,21.80
2022-10-14T19:36:26.865Z,15.93
2022-10-14T19:39:16.484Z,14.20
2022-10-14T19:42:03.551Z,17.23
2022-10-14T19:44:50.489Z,15.80
2022-10-14T19:47:37.428Z,20.63
2022-10-14T19:50:24.362Z,18.70
2022-10-14T19:53:11.516Z,19.07
2022-10-14T19:56:06.977Z,17.37
2022-10-14T19:58:56.598Z,20.00
2022-10-14T20:01:43.788Z,18.60
2022-10-14T20:04:30.792Z,16.37
2022-10-14T20:07:17.888Z,18.80
2022-10-14T20:10:05.286Z,17.03
2022-10-14T20:12:52.298Z,17.00
2022-10-14T20:15:39.188Z,14.77
2022-10-14T20:18:26.984Z,16.20
2022-10-14T20:21:15.536Z,16.13
2022-10-14T20:24:02.470Z,15.17
2022-10-14T20:26:49.396Z,17.23
2022-10-14T20:29:36.897Z,14.53
2022-10-14T20:32:23.897Z,13.13
2022-10-14T20:35:14.911Z,14.30
2022-10-14T20:38:02.277Z,12.93
2022-10-14T20:40:49.238Z,12.37
2022-10-14T20:43:36.223Z,12.97
2022-10-14T20:46:24.813Z,13.20
2022-10-14T20:49:12.900Z,12.10
2022-10-14T20:51:59.818Z,12.53
2022-10-14T20:54:46.737Z,13.97
2022-10-14T20:57:33.898Z,13.00
2022-10-14T21:00:20.934Z,13.77
2022-10-14T21:03:07.845Z,15.53
2022-10-14T21:05:54.758Z,12.70
2022-10-14T21:08:42.667Z,13.43
2022-10-14T21:11:29.669Z,13.90
2022-10-14T21:14:17.721Z,14.03
2022-10-14T21:17:05.342Z,13.07
2022-10-14T21:19:53.238Z,15.73
2022-10-14T21:22:40.390Z,17.60
2022-10-14T21:25:27.302Z,17.03
2022-10-14T21:28:14.302Z,20.30
2022-10-14T21:31:04.882Z,18.57
2022-10-14T21:33:58.919Z,21.07
2022-10-14T21:36:49.609Z,19.37
2022-10-14T21:39:36.918Z,23.87
2022-10-14T21:42:24.292Z,22.93
2022-10-14T21:45:11.506Z,21.27
2022-10-14T21:51:01.637Z,26.07
2022-10-14T21:53:48.587Z,24.63
2022-10-14T21:56:35.563Z,24.03
2022-10-14T21:59:22.515Z,25.80
2022-10-14T22:02:09.692Z,25.43
2022-10-14T22:04:56.657Z,25.63
2022-10-14T22:07:43.605Z,25.43
2022-10-14T22:10:43.688Z,26.30
2022-10-14T22:13:31.846Z,26.97
2022-10-14T22:16:19.827Z,30.27
2022-10-14T22:19:07.428Z,29.13
2022-10-14T22:21:54.564Z,30.97
2022-10-14T22:24:43.106Z,31.07
2022-10-14T22:27:30.084Z,29.03
2022-10-14T22:30:17.238Z,29.30
2022-10-14T22:33:04.293Z,31.53
2022-10-14T22:35:51.402Z,28.07
2022-10-14T22:38:40.543Z,29.43
2022-10-14T22:41:33.998Z,29.30
2022-10-14T22:44:22.101Z,29.93
2022-10-14T22:47:09.678Z,30.50
2022-10-14T22:49:56.621Z,32.63
2022-10-14T22:52:43.645Z,32.43
2022-10-14T22:55:30.577Z,30.60
2022-10-14T22:58:17.602Z,30.60
2022-10-14T23:01:08.857Z,34.10
2022-10-14T23:03:57.570Z,34.77
2022-10-14T23:06:49.282Z,37.20
2022-10-14T23:09:36.242Z,37.07
2022-10-14T23:12:23.514Z,38.00
2022-10-14T23:15:10.836Z,40.30
2022-10-14T23:17:57.968Z,42.37
2022-10-14T23:20:44.928Z,47.73
2022-10-14T23:23:31.886Z,47.23
2022-10-14T23:26:21.745Z,53.77
2022-10-14T23:29:11.575Z,46.77
2022-10-14T23:31:58.671Z,44.87
2022-10-14T23:34:45.642Z,56.50
2022-10-14T23:37:32.629Z,46.53
2022-10-14T23:40:19.637Z,52.33
2022-10-14T23:43:06.645Z,49.90
2022-10-14T23:45:53.627Z,49.30
2022-10-14T23:48:41.150Z,53.37
2022-10-14T23:51:28.100Z,48.83
2022-10-14T23:54:15.442Z,47.23
2022-10-14T23:57:02.350Z,51.53
2022-10-14T23:59:49.421Z,46.77
